sensor_id;sensor_type;location;lat;lon;timestamp;pressure;altitude;pressure_sealevel;temperature;humidity
6032;BME280;3044;43.232;27.972;2023-06-14T00:01:55;45108.09;;;-143.84;82.34
6032;BME280;3044;43.232;27.972;2023-06-14T00:04:22;45066.22;;;-143.84;82.60
6032;BME280;3044;43.232;27.972;2023-06-14T00:06:51;45104.28;;;-143.84;82.81
6032;BME280;3044;43.232;27.972;2023-06-14T00:09:19;45054.78;;;-143.84;82.92
6032;BME280;3044;43.232;27.972;2023-06-14T00:11:46;45066.22;;;-143.84;82.97
6032;BME280;3044;43.232;27.972;2023-06-14T00:14:13;45098.56;;;-143.84;83.05
6032;BME280;3044;43.232;27.972;2023-06-14T00:16:41;45064.31;;;-143.84;83.23
6032;BME280;3044;43.232;27.972;2023-06-14T00:19:09;45066.22;;;-143.84;83.55
6032;BME280;3044;43.232;27.972;2023-06-14T00:21:36;45050.97;;;-143.84;83.81
6032;BME280;3044;43.232;27.972;2023-06-14T00:24:04;45087.16;;;-143.84;84.41
6032;BME280;3044;43.232;27.972;2023-06-14T00:26:33;45054.78;;;-143.84;84.26
6032;BME280;3044;43.232;27.972;2023-06-14T00:29:00;45068.13;;;-143.84;83.78
6032;BME280;3044;43.232;27.972;2023-06-14T00:31:27;45066.22;;;-143.84;83.92
6032;BME280;3044;43.232;27.972;2023-06-14T00:33:54;45075.72;;;-143.84;83.60
6032;BME280;3044;43.232;27.972;2023-06-14T00:36:21;45075.72;;;-143.84;83.39
6032;BME280;3044;43.232;27.972;2023-06-14T00:38:48;45077.63;;;-143.84;83.13
6032;BME280;3044;43.232;27.972;2023-06-14T00:41:15;45071.91;;;-143.84;83.01
6032;BME280;3044;43.232;27.972;2023-06-14T00:43:44;45102.38;;;-143.84;82.88
6032;BME280;3044;43.232;27.972;2023-06-14T00:46:11;45085.25;;;-143.84;82.81
6032;BME280;3044;43.232;27.972;2023-06-14T00:48:38;45077.63;;;-143.84;82.87
6032;BME280;3044;43.232;27.972;2023-06-14T00:51:06;45049.06;;;-143.84;82.96
6032;BME280;3044;43.232;27.972;2023-06-14T00:53:33;45070.00;;;-143.84;82.99
6032;BME280;3044;43.232;27.972;2023-06-14T00:56:01;45087.16;;;-143.84;83.06
6032;BME280;3044;43.232;27.972;2023-06-14T00:58:29;45064.31;;;-143.84;83.18
6032;BME280;3044;43.232;27.972;2023-06-14T01:00:58;45079.53;;;-143.84;83.11
6032;BME280;3044;43.232;27.972;2023-06-14T01:03:25;45062.41;;;-143.84;83.06
6032;BME280;3044;43.232;27.972;2023-06-14T01:06:02;45121.44;;;-143.84;83.41
6032;BME280;3044;43.232;27.972;2023-06-14T01:08:43;45077.63;;;-143.84;83.47
6032;BME280;3044;43.232;27.972;2023-06-14T01:11:20;45075.72;;;-143.84;83.53
6032;BME280;3044;43.232;27.972;2023-06-14T01:13:50;45102.38;;;-143.84;83.53
6032;BME280;3044;43.232;27.972;2023-06-14T01:16:20;45092.88;;;-143.84;83.41
6032;BME280;3044;43.232;27.972;2023-06-14T01:18:47;45083.34;;;-143.84;83.41
6032;BME280;3044;43.232;27.972;2023-06-14T01:21:23;45094.78;;;-143.84;83.67
6032;BME280;3044;43.232;27.972;2023-06-14T01:23:52;45092.88;;;-143.84;84.18
6032;BME280;3044;43.232;27.972;2023-06-14T01:26:20;45087.16;;;-143.84;84.71
6032;BME280;3044;43.232;27.972;2023-06-14T01:28:48;45064.31;;;-143.84;84.97
6032;BME280;3044;43.232;27.972;2023-06-14T01:31:20;45056.69;;;-143.84;84.95
6032;BME280;3044;43.232;27.972;2023-06-14T01:33:48;45073.81;;;-143.84;85.34
6032;BME280;3044;43.232;27.972;2023-06-14T01:36:17;45056.69;;;-143.84;85.44
6032;BME280;3044;43.232;27.972;2023-06-14T01:38:45;45056.69;;;-143.84;85.68
6032;BME280;3044;43.232;27.972;2023-06-14T01:41:16;45056.69;;;-143.84;85.80
6032;BME280;3044;43.232;27.972;2023-06-14T01:43:45;45049.06;;;-143.84;85.92
6032;BME280;3044;43.232;27.972;2023-06-14T01:46:14;45047.16;;;-143.84;85.80
6032;BME280;3044;43.232;27.972;2023-06-14T01:48:43;45100.47;;;-143.84;86.00
6032;BME280;3044;43.232;27.972;2023-06-14T01:51:10;45037.66;;;-143.84;86.36
6032;BME280;3044;43.232;27.972;2023-06-14T01:53:37;45068.13;;;-143.84;86.31
6032;BME280;3044;43.232;27.972;2023-06-14T01:56:06;45054.78;;;-143.84;86.24
6032;BME280;3044;43.232;27.972;2023-06-14T01:58:34;45056.69;;;-143.84;86.13
6032;BME280;3044;43.232;27.972;2023-06-14T02:01:02;45043.34;;;-143.84;86.13
6032;BME280;3044;43.232;27.972;2023-06-14T02:03:29;45068.13;;;-143.84;86.36
6032;BME280;3044;43.232;27.972;2023-06-14T02:05:56;45064.31;;;-143.84;86.55
6032;BME280;3044;43.232;27.972;2023-06-14T02:08:24;45068.13;;;-143.84;86.47
6032;BME280;3044;43.232;27.972;2023-06-14T02:10:51;45049.06;;;-143.84;86.47
6032;BME280;3044;43.232;27.972;2023-06-14T02:13:18;45039.53;;;-143.84;86.48
6032;BME280;3044;43.232;27.972;2023-06-14T02:15:47;45037.66;;;-143.84;86.35
6032;BME280;3044;43.232;27.972;2023-06-14T02:18:16;45068.13;;;-143.84;86.41
6032;BME280;3044;43.232;27.972;2023-06-14T02:20:43;45041.44;;;-143.84;86.54
6032;BME280;3044;43.232;27.972;2023-06-14T02:23:10;45045.25;;;-143.84;86.72
6032;BME280;3044;43.232;27.972;2023-06-14T02:25:37;45066.22;;;-143.84;86.99
6032;BME280;3044;43.232;27.972;2023-06-14T02:28:06;45064.31;;;-143.84;86.84
6032;BME280;3044;43.232;27.972;2023-06-14T02:30:33;45030.03;;;-143.84;86.91
6032;BME280;3044;43.232;27.972;2023-06-14T02:33:01;45026.22;;;-143.84;86.88
6032;BME280;3044;43.232;27.972;2023-06-14T02:35:30;45043.34;;;-143.84;86.70
6032;BME280;3044;43.232;27.972;2023-06-14T02:37:57;45049.06;;;-143.84;86.77
6032;BME280;3044;43.232;27.972;2023-06-14T02:40:24;45056.69;;;-143.84;86.75
6032;BME280;3044;43.232;27.972;2023-06-14T02:42:51;45045.25;;;-143.84;86.82
6032;BME280;3044;43.232;27.972;2023-06-14T02:45:18;45050.97;;;-143.84;86.87
6032;BME280;3044;43.232;27.972;2023-06-14T02:47:46;45058.59;;;-143.84;86.64
6032;BME280;3044;43.232;27.972;2023-06-14T02:50:15;45047.16;;;-143.84;86.54
6032;BME280;3044;43.232;27.972;2023-06-14T02:52:43;45075.72;;;-143.84;86.76
6032;BME280;3044;43.232;27.972;2023-06-14T02:55:11;45066.22;;;-143.84;86.74
6032;BME280;3044;43.232;27.972;2023-06-14T02:57:38;45035.75;;;-143.84;86.45
6032;BME280;3044;43.232;27.972;2023-06-14T03:00:06;45045.25;;;-143.84;86.42
6032;BME280;3044;43.232;27.972;2023-06-14T03:02:35;45058.59;;;-143.84;86.37
6032;BME280;3044;43.232;27.972;2023-06-14T03:05:03;45071.91;;;-143.84;86.33
6032;BME280;3044;43.232;27.972;2023-06-14T03:07:33;45066.22;;;-143.84;86.51
6032;BME280;3044;43.232;27.972;2023-06-14T03:10:00;45062.41;;;-143.84;86.12
6032;BME280;3044;43.232;27.972;2023-06-14T03:12:28;45071.91;;;-143.84;86.14
6032;BME280;3044;43.232;27.972;2023-06-14T03:14:56;45096.66;;;-143.84;86.00
6032;BME280;3044;43.232;27.972;2023-06-14T03:17:27;45087.16;;;-143.84;85.84
6032;BME280;3044;43.232;27.972;2023-06-14T03:19:55;45071.91;;;-143.84;85.89
6032;BME280;3044;43.232;27.972;2023-06-14T03:22:22;45087.16;;;-143.84;86.34
6032;BME280;3044;43.232;27.972;2023-06-14T03:24:52;45052.88;;;-143.84;86.45
6032;BME280;3044;43.232;27.972;2023-06-14T03:27:19;45052.88;;;-143.84;86.48
6032;BME280;3044;43.232;27.972;2023-06-14T03:29:46;45050.97;;;-143.84;86.22
6032;BME280;3044;43.232;27.972;2023-06-14T03:32:14;45047.16;;;-143.84;85.66
6032;BME280;3044;43.232;27.972;2023-06-14T03:34:41;45092.88;;;-143.84;81.45
6032;BME280;3044;43.232;27.972;2023-06-14T03:37:08;45071.91;;;-143.84;75.40
6032;BME280;3044;43.232;27.972;2023-06-14T03:39:35;45081.44;;;-143.84;70.59
6032;BME280;3044;43.232;27.972;2023-06-14T03:42:05;45085.25;;;-143.84;66.44
6032;BME280;3044;43.232;27.972;2023-06-14T03:44:32;45062.41;;;-143.84;62.58
6032;BME280;3044;43.232;27.972;2023-06-14T03:46:59;45047.16;;;-143.84;58.57
6032;BME280;3044;43.232;27.972;2023-06-14T03:49:26;45054.78;;;-143.84;57.07
6032;BME280;3044;43.232;27.972;2023-06-14T03:51:53;45041.44;;;-143.84;55.53
6032;BME280;3044;43.232;27.972;2023-06-14T03:54:20;45052.88;;;-143.84;54.92
6032;BME280;3044;43.232;27.972;2023-06-14T03:56:48;45066.22;;;-143.84;53.42
6032;BME280;3044;43.232;27.972;2023-06-14T03:59:16;45047.16;;;-143.84;51.87
6032;BME280;3044;43.232;27.972;2023-06-14T04:01:43;45031.94;;;-143.84;51.10
6032;BME280;3044;43.232;27.972;2023-06-14T04:04:12;45037.66;;;-143.84;49.78
6032;BME280;3044;43.232;27.972;2023-06-14T04:06:41;45037.66;;;-143.84;49.09
6032;BME280;3044;43.232;27.972;2023-06-14T04:09:09;45031.94;;;-143.84;47.95
6032;BME280;3044;43.232;27.972;2023-06-14T04:11:36;45026.22;;;-143.84;47.59
6032;BME280;3044;43.232;27.972;2023-06-14T04:14:03;45016.69;;;-143.84;47.21
6032;BME280;3044;43.232;27.972;2023-06-14T04:16:32;45022.41;;;-143.84;47.23
6032;BME280;3044;43.232;27.972;2023-06-14T04:18:59;45033.84;;;-143.84;46.66
6032;BME280;3044;43.232;27.972;2023-06-14T04:21:26;45033.84;;;-143.84;46.07
6032;BME280;3044;43.232;27.972;2023-06-14T04:23:54;45024.31;;;-143.84;46.09
6032;BME280;3044;43.232;27.972;2023-06-14T04:26:22;45010.97;;;-143.84;46.26
6032;BME280;3044;43.232;27.972;2023-06-14T04:28:55;44999.56;;;-143.84;45.53
6032;BME280;3044;43.232;27.972;2023-06-14T04:31:27;45026.22;;;-143.84;45.18
6032;BME280;3044;43.232;27.972;2023-06-14T04:33:56;45005.28;;;-143.84;45.27
6032;BME280;3044;43.232;27.972;2023-06-14T04:36:24;45022.41;;;-143.84;45.09
6032;BME280;3044;43.232;27.972;2023-06-14T04:38:53;45007.19;;;-143.84;44.43
6032;BME280;3044;43.232;27.972;2023-06-14T04:41:21;45009.09;;;-143.84;44.39
6032;BME280;3044;43.232;27.972;2023-06-14T04:43:48;45007.19;;;-143.84;45.01
6032;BME280;3044;43.232;27.972;2023-06-14T04:46:16;45014.78;;;-143.84;44.33
6032;BME280;3044;43.232;27.972;2023-06-14T04:48:44;44997.66;;;-143.84;44.15
6032;BME280;3044;43.232;27.972;2023-06-14T04:51:12;45003.38;;;-143.84;44.29
6032;BME280;3044;43.232;27.972;2023-06-14T04:53:40;45016.69;;;-143.84;44.23
6032;BME280;3044;43.232;27.972;2023-06-14T04:56:08;45003.38;;;-143.84;43.59
6032;BME280;3044;43.232;27.972;2023-06-14T04:58:35;44980.53;;;-143.84;43.76
6032;BME280;3044;43.232;27.972;2023-06-14T05:01:03;44995.75;;;-143.84;43.25
6032;BME280;3044;43.232;27.972;2023-06-14T05:03:31;45010.97;;;-143.84;43.30
6032;BME280;3044;43.232;27.972;2023-06-14T05:06:00;44993.84;;;-143.84;43.45
6032;BME280;3044;43.232;27.972;2023-06-14T05:08:28;45001.47;;;-143.84;42.84
6032;BME280;3044;43.232;27.972;2023-06-14T05:10:55;44999.56;;;-143.84;43.02
6032;BME280;3044;43.232;27.972;2023-06-14T05:13:23;44993.84;;;-143.84;43.17
6032;BME280;3044;43.232;27.972;2023-06-14T05:15:50;44993.84;;;-143.84;43.30
6032;BME280;3044;43.232;27.972;2023-06-14T05:18:17;44988.13;;;-143.84;43.56
6032;BME280;3044;43.232;27.972;2023-06-14T05:20:44;44997.66;;;-143.84;43.30
6032;BME280;3044;43.232;27.972;2023-06-14T05:23:11;44988.13;;;-143.84;42.88
6032;BME280;3044;43.232;27.972;2023-06-14T05:25:44;44997.66;;;-143.84;42.93
6032;BME280;3044;43.232;27.972;2023-06-14T05:28:11;44993.84;;;-143.84;42.71
6032;BME280;3044;43.232;27.972;2023-06-14T05:30:39;44978.63;;;-143.84;42.65
6032;BME280;3044;43.232;27.972;2023-06-14T05:33:06;44982.41;;;-143.84;42.27
6032;BME280;3044;43.232;27.972;2023-06-14T05:35:33;44967.19;;;-143.84;42.00
6032;BME280;3044;43.232;27.972;2023-06-14T05:38:00;44965.28;;;-143.84;42.07
6032;BME280;3044;43.232;27.972;2023-06-14T05:40:28;44965.28;;;-143.84;42.12
6032;BME280;3044;43.232;27.972;2023-06-14T05:42:56;44971.00;;;-143.84;41.55
6032;BME280;3044;43.232;27.972;2023-06-14T05:45:23;44963.38;;;-143.84;41.51
6032;BME280;3044;43.232;27.972;2023-06-14T05:47:50;44976.72;;;-143.84;41.31
6032;BME280;3044;43.232;27.972;2023-06-14T05:50:20;44961.47;;;-143.84;40.66
6032;BME280;3044;43.232;27.972;2023-06-14T05:52:47;44965.28;;;-143.84;40.94
6032;BME280;3044;43.232;27.972;2023-06-14T05:55:16;44980.53;;;-143.84;40.72
6032;BME280;3044;43.232;27.972;2023-06-14T05:57:43;44972.91;;;-143.84;39.99
6032;BME280;3044;43.232;27.972;2023-06-14T06:00:13;44953.88;;;-143.84;40.14
6032;BME280;3044;43.232;27.972;2023-06-14T06:02:41;44951.97;;;-143.84;40.09
6032;BME280;3044;43.232;27.972;2023-06-14T06:05:09;44955.75;;;-143.84;39.52
6032;BME280;3044;43.232;27.972;2023-06-14T06:07:36;44974.81;;;-143.84;39.84
6032;BME280;3044;43.232;27.972;2023-06-14T06:10:03;44980.53;;;-143.84;38.89
6032;BME280;3044;43.232;27.972;2023-06-14T06:12:31;44950.06;;;-143.84;39.09
6032;BME280;3044;43.232;27.972;2023-06-14T06:14:58;44972.91;;;-143.84;38.98
6032;BME280;3044;43.232;27.972;2023-06-14T06:17:27;44934.81;;;-143.84;38.33
6032;BME280;3044;43.232;27.972;2023-06-14T06:19:54;44932.91;;;-143.84;37.21
6032;BME280;3044;43.232;27.972;2023-06-14T06:22:21;44942.44;;;-143.84;37.39
6032;BME280;3044;43.232;27.972;2023-06-14T06:24:48;44978.63;;;-143.84;37.52
6032;BME280;3044;43.232;27.972;2023-06-14T06:27:16;44955.75;;;-143.84;37.92
6032;BME280;3044;43.232;27.972;2023-06-14T06:29:44;44953.88;;;-143.84;37.95
6032;BME280;3044;43.232;27.972;2023-06-14T06:32:11;44963.38;;;-143.84;37.91
6032;BME280;3044;43.232;27.972;2023-06-14T06:34:40;44963.38;;;-143.84;37.61
6032;BME280;3044;43.232;27.972;2023-06-14T06:37:07;44942.44;;;-143.84;37.55
6032;BME280;3044;43.232;27.972;2023-06-14T06:39:34;44974.81;;;-143.84;38.12
6032;BME280;3044;43.232;27.972;2023-06-14T06:42:01;44963.38;;;-143.84;37.42
6032;BME280;3044;43.232;27.972;2023-06-14T06:44:29;44931.00;;;-143.84;37.10
6032;BME280;3044;43.232;27.972;2023-06-14T06:46:56;44961.47;;;-143.84;37.53
6032;BME280;3044;43.232;27.972;2023-06-14T06:49:24;44957.66;;;-143.84;38.19
6032;BME280;3044;43.232;27.972;2023-06-14T06:52:02;44961.47;;;-143.84;38.29
6032;BME280;3044;43.232;27.972;2023-06-14T06:54:30;44946.25;;;-143.84;37.34
6032;BME280;3044;43.232;27.972;2023-06-14T06:56:58;44953.88;;;-143.84;37.19
6032;BME280;3044;43.232;27.972;2023-06-14T06:59:25;44950.06;;;-143.84;37.15
6032;BME280;3044;43.232;27.972;2023-06-14T07:01:52;44957.66;;;-143.84;36.90
6032;BME280;3044;43.232;27.972;2023-06-14T07:04:19;44950.06;;;-143.84;35.85
6032;BME280;3044;43.232;27.972;2023-06-14T07:06:46;44931.00;;;-143.84;36.53
6032;BME280;3044;43.232;27.972;2023-06-14T07:09:29;44946.25;;;-143.84;36.44
6032;BME280;3044;43.232;27.972;2023-06-14T07:11:58;44931.00;;;-143.84;36.26
6032;BME280;3044;43.232;27.972;2023-06-14T07:14:25;44927.19;;;-143.84;35.56
6032;BME280;3044;43.232;27.972;2023-06-14T07:16:53;44932.91;;;-143.84;35.11
6032;BME280;3044;43.232;27.972;2023-06-14T07:19:20;44927.19;;;-143.84;34.67
6032;BME280;3044;43.232;27.972;2023-06-14T07:21:47;44925.31;;;-143.84;35.54
6032;BME280;3044;43.232;27.972;2023-06-14T07:24:15;44915.78;;;-143.84;34.98
6032;BME280;3044;43.232;27.972;2023-06-14T07:26:43;44923.41;;;-143.84;35.42
6032;BME280;3044;43.232;27.972;2023-06-14T07:29:10;44948.16;;;-143.84;36.16
6032;BME280;3044;43.232;27.972;2023-06-14T07:31:37;44915.78;;;-143.84;35.60
6032;BME280;3044;43.232;27.972;2023-06-14T07:34:04;44934.81;;;-143.84;36.53
6032;BME280;3044;43.232;27.972;2023-06-14T07:36:31;44976.72;;;-143.84;36.35
6032;BME280;3044;43.232;27.972;2023-06-14T07:38:58;44953.88;;;-143.84;35.75
6032;BME280;3044;43.232;27.972;2023-06-14T07:41:29;44950.06;;;-143.84;36.81
6032;BME280;3044;43.232;27.972;2023-06-14T07:43:56;44967.19;;;-143.84;36.95
6032;BME280;3044;43.232;27.972;2023-06-14T07:46:23;44961.47;;;-143.84;37.27
6032;BME280;3044;43.232;27.972;2023-06-14T07:48:50;44990.03;;;-143.84;37.49
6032;BME280;3044;43.232;27.972;2023-06-14T07:51:17;44965.28;;;-143.84;37.49
6032;BME280;3044;43.232;27.972;2023-06-14T07:53:44;44959.56;;;-143.84;38.10
6032;BME280;3044;43.232;27.972;2023-06-14T07:56:11;44953.88;;;-143.84;37.94
6032;BME280;3044;43.232;27.972;2023-06-14T07:58:40;44927.19;;;-143.84;38.52
6032;BME280;3044;43.232;27.972;2023-06-14T08:01:08;44940.53;;;-143.84;37.40
6032;BME280;3044;43.232;27.972;2023-06-14T08:03:35;44938.63;;;-143.84;36.22
6032;BME280;3044;43.232;27.972;2023-06-14T08:06:02;44955.75;;;-143.84;37.72
6032;BME280;3044;43.232;27.972;2023-06-14T08:08:30;44942.44;;;-143.84;37.72
6032;BME280;3044;43.232;27.972;2023-06-14T08:10:57;44929.09;;;-143.84;36.30
6032;BME280;3044;43.232;27.972;2023-06-14T08:13:24;44951.97;;;-143.84;35.90
6032;BME280;3044;43.232;27.972;2023-06-14T08:15:52;44944.34;;;-143.84;35.82
6032;BME280;3044;43.232;27.972;2023-06-14T08:18:20;44942.44;;;-143.84;36.66
6032;BME280;3044;43.232;27.972;2023-06-14T08:20:47;44932.91;;;-143.84;35.54
6032;BME280;3044;43.232;27.972;2023-06-14T08:23:15;44919.59;;;-143.84;35.53
6032;BME280;3044;43.232;27.972;2023-06-14T08:25:44;44931.00;;;-143.84;34.97
6032;BME280;3044;43.232;27.972;2023-06-14T08:28:12;44932.91;;;-143.84;35.50
6032;BME280;3044;43.232;27.972;2023-06-14T08:30:39;44906.25;;;-143.84;35.02
6032;BME280;3044;43.232;27.972;2023-06-14T08:33:12;44936.72;;;-143.84;35.90
6032;BME280;3044;43.232;27.972;2023-06-14T08:35:51;44923.41;;;-143.84;36.58
6032;BME280;3044;43.232;27.972;2023-06-14T08:38:19;44919.59;;;-143.84;36.21
6032;BME280;3044;43.232;27.972;2023-06-14T08:40:50;44915.78;;;-143.84;35.96
6032;BME280;3044;43.232;27.972;2023-06-14T08:43:18;44919.59;;;-143.84;36.73
6032;BME280;3044;43.232;27.972;2023-06-14T08:45:46;44946.25;;;-143.84;35.52
6032;BME280;3044;43.232;27.972;2023-06-14T08:48:18;44919.59;;;-143.84;36.79
6032;BME280;3044;43.232;27.972;2023-06-14T08:51:11;44944.34;;;-143.84;36.03
6032;BME280;3044;43.232;27.972;2023-06-14T08:53:54;44931.00;;;-143.84;37.03
6032;BME280;3044;43.232;27.972;2023-06-14T08:56:25;44927.19;;;-143.84;36.42
6032;BME280;3044;43.232;27.972;2023-06-14T08:58:53;44931.00;;;-143.84;36.87
6032;BME280;3044;43.232;27.972;2023-06-14T09:01:21;44929.09;;;-143.84;36.25
6032;BME280;3044;43.232;27.972;2023-06-14T09:03:50;44946.25;;;-143.84;36.83
6032;BME280;3044;43.232;27.972;2023-06-14T09:06:17;44950.06;;;-143.84;39.66
6032;BME280;3044;43.232;27.972;2023-06-14T09:08:49;44934.81;;;-143.84;41.54
6032;BME280;3044;43.232;27.972;2023-06-14T09:11:17;44984.31;;;-143.84;38.41
6032;BME280;3044;43.232;27.972;2023-06-14T09:13:48;44978.63;;;-143.84;41.85
6032;BME280;3044;43.232;27.972;2023-06-14T09:16:15;44991.94;;;-143.84;41.23
6032;BME280;3044;43.232;27.972;2023-06-14T09:18:43;44961.47;;;-143.84;41.91
6032;BME280;3044;43.232;27.972;2023-06-14T09:21:15;45001.47;;;-143.84;42.45
6032;BME280;3044;43.232;27.972;2023-06-14T09:23:43;45001.47;;;-143.84;42.79
6032;BME280;3044;43.232;27.972;2023-06-14T09:26:12;45012.88;;;-143.84;44.11
6032;BME280;3044;43.232;27.972;2023-06-14T09:28:41;45005.28;;;-143.84;45.21
6032;BME280;3044;43.232;27.972;2023-06-14T09:31:10;44978.63;;;-143.84;46.74
6032;BME280;3044;43.232;27.972;2023-06-14T09:33:37;44988.13;;;-143.84;46.60
6032;BME280;3044;43.232;27.972;2023-06-14T09:36:04;45005.28;;;-143.84;47.66
6032;BME280;3044;43.232;27.972;2023-06-14T09:38:40;44967.19;;;-143.84;46.25
6032;BME280;3044;43.232;27.972;2023-06-14T09:41:07;44984.31;;;-143.84;45.44
6032;BME280;3044;43.232;27.972;2023-06-14T09:43:34;44963.38;;;-143.84;45.23
6032;BME280;3044;43.232;27.972;2023-06-14T09:46:04;44986.22;;;-143.84;46.86
6032;BME280;3044;43.232;27.972;2023-06-14T09:48:33;44984.31;;;-143.84;46.50
6032;BME280;3044;43.232;27.972;2023-06-14T09:51:01;44969.09;;;-143.84;45.39
6032;BME280;3044;43.232;27.972;2023-06-14T09:53:30;44950.06;;;-143.84;45.31
6032;BME280;3044;43.232;27.972;2023-06-14T09:56:00;44974.81;;;-143.84;45.26
6032;BME280;3044;43.232;27.972;2023-06-14T09:58:28;45005.28;;;-143.84;45.18
6032;BME280;3044;43.232;27.972;2023-06-14T10:00:57;45003.38;;;-143.84;45.67
6032;BME280;3044;43.232;27.972;2023-06-14T10:03:28;44990.03;;;-143.84;46.56
6032;BME280;3044;43.232;27.972;2023-06-14T10:05:56;45007.19;;;-143.84;46.97
6032;BME280;3044;43.232;27.972;2023-06-14T10:08:27;44991.94;;;-143.84;46.29
6032;BME280;3044;43.232;27.972;2023-06-14T10:11:00;44982.41;;;-143.84;47.52
6032;BME280;3044;43.232;27.972;2023-06-14T10:13:29;45003.38;;;-143.84;47.88
6032;BME280;3044;43.232;27.972;2023-06-14T10:16:02;45007.19;;;-143.84;49.04
6032;BME280;3044;43.232;27.972;2023-06-14T10:18:40;45014.78;;;-143.84;50.02
6032;BME280;3044;43.232;27.972;2023-06-14T10:21:16;45009.09;;;-143.84;51.21
6032;BME280;3044;43.232;27.972;2023-06-14T10:23:46;45043.34;;;-143.84;52.59
6032;BME280;3044;43.232;27.972;2023-06-14T10:26:22;45016.69;;;-143.84;52.85
6032;BME280;3044;43.232;27.972;2023-06-14T10:28:58;45020.50;;;-143.84;53.86
6032;BME280;3044;43.232;27.972;2023-06-14T10:31:43;44972.91;;;-143.84;53.01
6032;BME280;3044;43.232;27.972;2023-06-14T10:34:11;45043.34;;;-143.84;52.92
6032;BME280;3044;43.232;27.972;2023-06-14T10:36:41;45028.13;;;-143.84;53.16
6032;BME280;3044;43.232;27.972;2023-06-14T10:39:14;45030.03;;;-143.84;51.66
6032;BME280;3044;43.232;27.972;2023-06-14T10:41:52;44995.75;;;-143.84;52.77
6032;BME280;3044;43.232;27.972;2023-06-14T10:44:39;45016.69;;;-143.84;53.18
6032;BME280;3044;43.232;27.972;2023-06-14T10:47:08;45007.19;;;-143.84;53.72
6032;BME280;3044;43.232;27.972;2023-06-14T10:49:38;45003.38;;;-143.84;53.83
6032;BME280;3044;43.232;27.972;2023-06-14T10:52:09;45020.50;;;-143.84;53.35
6032;BME280;3044;43.232;27.972;2023-06-14T10:55:00;45014.78;;;-143.84;53.04
6032;BME280;3044;43.232;27.972;2023-06-14T10:57:31;45018.59;;;-143.84;53.00
6032;BME280;3044;43.232;27.972;2023-06-14T10:59:58;45010.97;;;-143.84;52.31
6032;BME280;3044;43.232;27.972;2023-06-14T11:05:42;45003.38;;;-143.84;51.56
6032;BME280;3044;43.232;27.972;2023-06-14T11:08:31;44991.94;;;-143.84;52.69
6032;BME280;3044;43.232;27.972;2023-06-14T11:11:06;45014.78;;;-143.84;51.19
6032;BME280;3044;43.232;27.972;2023-06-14T11:13:37;45014.78;;;-143.84;51.79
6032;BME280;3044;43.232;27.972;2023-06-14T11:16:11;44990.03;;;-143.84;52.02
6032;BME280;3044;43.232;27.972;2023-06-14T11:18:40;45020.50;;;-143.84;50.91
6032;BME280;3044;43.232;27.972;2023-06-14T11:21:08;45031.94;;;-143.84;51.29
6032;BME280;3044;43.232;27.972;2023-06-14T11:23:35;45005.28;;;-143.84;51.59
6032;BME280;3044;43.232;27.972;2023-06-14T11:26:02;45012.88;;;-143.84;51.03
6032;BME280;3044;43.232;27.972;2023-06-14T11:28:39;44984.31;;;-143.84;50.73
6032;BME280;3044;43.232;27.972;2023-06-14T11:31:07;45014.78;;;-143.84;50.14
6032;BME280;3044;43.232;27.972;2023-06-14T11:33:34;45014.78;;;-143.84;49.25
6032;BME280;3044;43.232;27.972;2023-06-14T11:36:02;44978.63;;;-143.84;47.86
6032;BME280;3044;43.232;27.972;2023-06-14T11:38:30;44995.75;;;-143.84;49.52
6032;BME280;3044;43.232;27.972;2023-06-14T11:41:00;44988.13;;;-143.84;48.55
6032;BME280;3044;43.232;27.972;2023-06-14T11:43:27;45001.47;;;-143.84;48.56
6032;BME280;3044;43.232;27.972;2023-06-14T11:45:58;45024.31;;;-143.84;49.29
6032;BME280;3044;43.232;27.972;2023-06-14T11:48:36;45007.19;;;-143.84;50.44
6032;BME280;3044;43.232;27.972;2023-06-14T11:51:03;44984.31;;;-143.84;52.49
6032;BME280;3044;43.232;27.972;2023-06-14T11:53:30;45018.59;;;-143.84;52.87
6032;BME280;3044;43.232;27.972;2023-06-14T11:55:58;44976.72;;;-143.84;54.55
6032;BME280;3044;43.232;27.972;2023-06-14T11:58:25;44997.66;;;-143.84;55.83
6032;BME280;3044;43.232;27.972;2023-06-14T12:00:53;44990.03;;;-143.84;57.07
6032;BME280;3044;43.232;27.972;2023-06-14T12:03:24;44988.13;;;-143.84;58.51
6032;BME280;3044;43.232;27.972;2023-06-14T12:06:02;44997.66;;;-143.84;59.87
6032;BME280;3044;43.232;27.972;2023-06-14T12:08:33;45024.31;;;-143.84;60.62
6032;BME280;3044;43.232;27.972;2023-06-14T12:11:05;45007.19;;;-143.84;61.63
6032;BME280;3044;43.232;27.972;2023-06-14T12:13:34;45009.09;;;-143.84;62.12
6032;BME280;3044;43.232;27.972;2023-06-14T12:16:04;45018.59;;;-143.84;62.23
6032;BME280;3044;43.232;27.972;2023-06-14T12:18:34;45014.78;;;-143.84;62.24
6032;BME280;3044;43.232;27.972;2023-06-14T12:21:02;45003.38;;;-143.84;62.04
6032;BME280;3044;43.232;27.972;2023-06-14T12:23:42;44993.84;;;-143.84;62.21
6032;BME280;3044;43.232;27.972;2023-06-14T12:26:09;45010.97;;;-143.84;61.71
6032;BME280;3044;43.232;27.972;2023-06-14T12:28:40;44990.03;;;-143.84;62.88
6032;BME280;3044;43.232;27.972;2023-06-14T12:31:07;45010.97;;;-143.84;61.58
6032;BME280;3044;43.232;27.972;2023-06-14T12:33:36;44969.09;;;-143.84;61.49
6032;BME280;3044;43.232;27.972;2023-06-14T12:36:04;44988.13;;;-143.84;61.40
6032;BME280;3044;43.232;27.972;2023-06-14T12:38:32;45009.09;;;-143.84;60.65
6032;BME280;3044;43.232;27.972;2023-06-14T12:40:59;44976.72;;;-143.84;60.98
6032;BME280;3044;43.232;27.972;2023-06-14T12:43:26;45009.09;;;-143.84;60.58
6032;BME280;3044;43.232;27.972;2023-06-14T12:45:53;45012.88;;;-143.84;61.15
6032;BME280;3044;43.232;27.972;2023-06-14T12:48:20;44990.03;;;-143.84;60.04
6032;BME280;3044;43.232;27.972;2023-06-14T12:50:49;44997.66;;;-143.84;60.66
6032;BME280;3044;43.232;27.972;2023-06-14T12:53:16;44995.75;;;-143.84;61.16
6032;BME280;3044;43.232;27.972;2023-06-14T12:55:43;44995.75;;;-143.84;63.08
6032;BME280;3044;43.232;27.972;2023-06-14T12:58:11;45052.88;;;-143.84;63.34
6032;BME280;3044;43.232;27.972;2023-06-14T13:00:39;45010.97;;;-143.84;64.18
6032;BME280;3044;43.232;27.972;2023-06-14T13:03:06;45020.50;;;-143.84;63.39